Time;durP1;ratioP1;P1;durP2;ratioP2;P2;SDS_P1;SDS_P2;PMS_P1;PMS_P2;Temp;Humidity;BMP_temperature;BMP_pressure;BME280_temperature;BME280_humidity;BME280_pressure;Samples;Min_cycle;Max_cycle;Signal;HPM_P1;HPM_P2
2023/04/09 00:01:50;;;;;;;28.00;13.77;;;12.50;90.00;;;;;;5113314;28;20028;-78
2023/04/09 00:04:15;;;;;;;21.75;12.50;;;12.50;89.90;;;;;;5113184;28;20035;-78
2023/04/09 00:06:41;;;;;;;25.50;13.23;;;12.50;90.00;;;;;;5113108;28;20105;-78
2023/04/09 00:09:06;;;;;;;26.35;13.07;;;12.50;89.90;;;;;;5114085;28;20023;-78
2023/04/09 00:11:32;;;;;;;27.55;13.45;;;12.60;89.80;;;;;;5114157;28;20481;-78
2023/04/09 00:13:58;;;;;;;26.67;13.93;;;12.50;89.70;;;;;;5096003;28;20032;-78
2023/04/09 00:16:24;;;;;;;25.00;13.98;;;12.50;89.70;;;;;;5113983;28;20028;-78
2023/04/09 00:18:50;;;;;;;23.88;13.35;;;12.50;89.80;;;;;;5113237;28;20032;-78
2023/04/09 00:21:16;;;;;;;27.15;13.00;;;12.50;89.90;;;;;;5113902;28;20393;-78
2023/04/09 00:23:42;;;;;;;25.08;12.88;;;12.50;90.00;;;;;;5113851;28;20051;-78
2023/04/09 00:26:07;;;;;;;26.58;13.82;;;12.40;90.10;;;;;;5113832;28;20028;-78
2023/04/09 00:28:34;;;;;;;24.98;13.25;;;12.40;90.30;;;;;;5113729;28;20037;-78
2023/04/09 00:31:00;;;;;;;23.50;12.77;;;12.40;90.20;;;;;;5112922;28;20028;-78
2023/04/09 00:33:26;;;;;;;28.63;13.82;;;12.50;90.30;;;;;;5113664;28;20099;-78
2023/04/09 00:35:52;;;;;;;26.83;14.32;;;12.50;90.30;;;;;;5113645;28;20088;-78
2023/04/09 00:38:17;;;;;;;27.80;12.80;;;12.40;90.00;;;;;;5113661;28;20036;-78
2023/04/09 00:40:47;;;;;;;25.38;13.07;;;12.40;90.10;;;;;;5112535;28;20051;-78
2023/04/09 00:43:12;;;;;;;30.60;14.73;;;12.40;90.20;;;;;;5113581;28;20020;-78
2023/04/09 00:45:38;;;;;;;27.65;14.30;;;12.40;90.20;;;;;;5113535;28;20111;-78
2023/04/09 00:48:04;;;;;;;30.08;15.65;;;12.40;90.20;;;;;;5113464;28;20032;-78
2023/04/09 00:50:29;;;;;;;30.73;15.40;;;12.30;90.30;;;;;;5113149;28;20035;-78
2023/04/09 00:52:55;;;;;;;31.08;14.60;;;12.40;90.30;;;;;;5113365;28;20020;-78
2023/04/09 00:55:22;;;;;;;31.08;15.57;;;12.30;90.20;;;;;;5112441;28;20054;-78
2023/04/09 00:57:47;;;;;;;31.52;16.08;;;12.30;90.40;;;;;;5113465;28;20024;-78
2023/04/09 01:00:13;;;;;;;31.02;15.60;;;12.30;90.40;;;;;;5113548;28;20035;-78
2023/04/09 01:02:40;;;;;;;32.42;15.00;;;12.30;90.30;;;;;;5112458;28;20032;-78
2023/04/09 01:05:05;;;;;;;30.52;15.38;;;12.20;90.30;;;;;;5112403;28;20028;-78
2023/04/09 01:07:53;;;;;;;31.30;15.10;;;12.10;90.40;;;;;;5112269;28;20108;-78
2023/04/09 01:10:28;;;;;;;32.47;15.70;;;12.10;90.60;;;;;;5113340;28;20019;-78
2023/04/09 01:13:00;;;;;;;30.92;15.95;;;12.10;90.70;;;;;;5113357;28;20074;-78
2023/04/09 01:15:29;;;;;;;34.35;15.90;;;12.20;90.70;;;;;;5113360;28;20491;-78
2023/04/09 01:18:06;;;;;;;34.13;15.95;;;12.20;90.60;;;;;;5113281;28;20078;-78
2023/04/09 01:20:48;;;;;;;34.97;16.30;;;12.20;90.60;;;;;;5113269;28;20457;-78
2023/04/09 01:23:37;;;;;;;30.65;15.40;;;12.10;90.70;;;;;;5113244;28;20107;-78
2023/04/09 01:26:10;;;;;;;33.88;16.45;;;12.10;90.70;;;;;;5113147;28;20024;-78
2023/04/09 01:28:43;;;;;;;30.33;15.38;;;12.10;90.70;;;;;;5113149;28;20020;-78
2023/04/09 01:31:14;;;;;;;32.80;15.27;;;12.10;90.70;;;;;;5113201;28;20067;-78
2023/04/09 01:33:43;;;;;;;32.85;15.20;;;12.10;90.70;;;;;;5113086;28;20032;-78
2023/04/09 01:36:10;;;;;;;31.98;15.27;;;12.10;90.80;;;;;;5112232;28;20031;-78
2023/04/09 01:38:38;;;;;;;35.05;16.92;;;12.10;90.70;;;;;;5113090;28;20020;-78
2023/04/09 01:41:05;;;;;;;30.73;15.00;;;12.10;90.70;;;;;;5112938;28;20052;-78
2023/04/09 01:43:33;;;;;;;30.77;15.60;;;12.10;90.80;;;;;;5113045;28;20095;-78
2023/04/09 01:46:01;;;;;;;27.95;14.48;;;12.10;90.80;;;;;;5113014;28;20028;-78
2023/04/09 01:48:29;;;;;;;32.72;15.63;;;12.10;90.80;;;;;;5112925;28;20029;-78
2023/04/09 01:50:55;;;;;;;36.03;16.48;;;12.10;90.80;;;;;;5111998;28;20054;-78
2023/04/09 01:53:21;;;;;;;34.13;15.63;;;12.10;90.70;;;;;;5112930;28;20024;-78
2023/04/09 01:55:47;;;;;;;33.78;15.95;;;12.00;90.60;;;;;;5112957;28;20023;-78
2023/04/09 01:58:13;;;;;;;33.15;15.77;;;12.00;90.90;;;;;;5111982;28;20550;-78
2023/04/09 02:00:45;;;;;;;34.33;16.58;;;12.00;90.80;;;;;;5112838;28;20058;-78
2023/04/09 02:03:36;;;;;;;36.30;17.10;;;12.00;90.90;;;;;;5113724;28;20028;-78
2023/04/09 02:06:27;;;;;;;38.35;17.52;;;12.00;90.80;;;;;;5107700;28;20066;-78
2023/04/09 02:08:56;;;;;;;35.65;17.08;;;12.00;90.80;;;;;;5115409;28;20027;-78
2023/04/09 02:11:24;;;;;;;38.45;17.23;;;11.90;90.90;;;;;;5115388;28;20027;-78
2023/04/09 02:13:53;;;;;;;36.80;16.75;;;11.90;91.00;;;;;;5116343;28;20039;-78
2023/04/09 02:16:19;;;;;;;39.58;18.48;;;11.90;90.90;;;;;;5116230;28;20016;-78
2023/04/09 02:18:45;;;;;;;39.63;17.90;;;11.90;90.90;;;;;;5115302;28;20028;-78
2023/04/09 02:21:12;;;;;;;37.83;18.48;;;11.90;90.70;;;;;;5115322;28;20063;-78
2023/04/09 02:23:38;;;;;;;35.50;16.35;;;11.90;90.90;;;;;;5116136;28;20088;-78
2023/04/09 02:26:03;;;;;;;42.25;18.38;;;11.90;90.90;;;;;;5116093;28;20032;-78
2023/04/09 02:28:29;;;;;;;40.42;17.98;;;11.90;91.00;;;;;;5114931;28;20028;-78
2023/04/09 02:30:55;;;;;;;37.35;17.08;;;11.90;90.90;;;;;;5115988;28;20099;-78
2023/04/09 02:33:21;;;;;;;37.53;17.33;;;11.90;90.80;;;;;;5115872;28;20016;-78
2023/04/09 02:35:47;;;;;;;38.95;18.95;;;11.80;91.00;;;;;;5115939;28;20070;-78
2023/04/09 02:38:13;;;;;;;38.70;17.20;;;11.80;90.80;;;;;;5115965;28;20050;-78
2023/04/09 02:40:40;;;;;;;40.70;17.90;;;11.80;90.90;;;;;;5114577;28;20050;-78
2023/04/09 02:43:06;;;;;;;37.25;17.15;;;11.70;91.00;;;;;;5114828;28;20035;-78
2023/04/09 02:45:31;;;;;;;37.70;16.67;;;11.70;91.10;;;;;;5115709;28;20028;-78
2023/04/09 02:47:57;;;;;;;35.10;17.10;;;11.70;91.20;;;;;;5114675;28;20036;-78
2023/04/09 02:50:23;;;;;;;38.33;17.05;;;11.80;91.20;;;;;;5114879;28;20043;-78
2023/04/09 02:52:48;;;;;;;34.65;16.38;;;11.80;90.80;;;;;;5115546;28;20032;-78
2023/04/09 02:55:14;;;;;;;40.58;15.63;;;11.70;90.90;;;;;;5115624;28;20084;-78
2023/04/09 02:57:40;;;;;;;35.28;16.63;;;11.70;90.90;;;;;;5115502;28;20059;-78
2023/04/09 03:00:08;;;;;;;35.58;17.30;;;11.70;90.90;;;;;;5115422;28;20025;-78
2023/04/09 03:02:33;;;;;;;38.40;16.20;;;11.70;90.80;;;;;;5115357;28;20031;-78
2023/04/09 03:04:59;;;;;;;38.40;16.42;;;11.70;90.70;;;;;;5114443;28;20091;-78
2023/04/09 03:07:25;;;;;;;35.15;16.50;;;11.60;90.60;;;;;;5115190;28;20032;-78
2023/04/09 03:09:50;;;;;;;39.88;17.05;;;11.60;90.60;;;;;;5097492;28;20031;-78
2023/04/09 03:12:16;;;;;;;37.00;17.10;;;11.60;90.70;;;;;;5115220;28;20430;-78
2023/04/09 03:14:41;;;;;;;37.20;15.68;;;11.60;90.70;;;;;;5113653;28;20032;-78
2023/04/09 03:17:07;;;;;;;37.70;16.05;;;11.70;90.70;;;;;;5115062;28;20035;-78
2023/04/09 03:19:33;;;;;;;39.88;16.90;;;11.70;90.70;;;;;;5115128;28;20115;-78
2023/04/09 03:21:58;;;;;;;33.70;15.55;;;11.60;90.60;;;;;;5114960;28;20039;-78
2023/04/09 03:24:24;;;;;;;29.80;14.60;;;11.60;90.40;;;;;;5114923;28;20046;-78
2023/04/09 03:26:50;;;;;;;31.92;14.73;;;11.50;90.30;;;;;;5114862;28;20412;-78
2023/04/09 03:29:15;;;;;;;34.13;15.77;;;11.40;90.20;;;;;;5080335;28;20016;-78
2023/04/09 03:31:41;;;;;;;29.83;14.02;;;11.40;90.20;;;;;;5114824;28;20021;-78
2023/04/09 03:34:07;;;;;;;29.98;13.55;;;11.30;90.10;;;;;;5113792;28;20038;-78
2023/04/09 03:36:32;;;;;;;32.35;13.68;;;11.30;90.20;;;;;;5114699;28;20051;-78
2023/04/09 03:38:59;;;;;;;28.05;13.45;;;11.30;90.20;;;;;;5114673;28;20162;-78
2023/04/09 03:41:25;;;;;;;29.90;13.98;;;11.30;90.10;;;;;;5113299;28;20052;-78
2023/04/09 03:43:51;;;;;;;30.13;13.98;;;11.20;89.20;;;;;;5114582;28;20036;-78
2023/04/09 03:46:17;;;;;;;29.35;13.23;;;11.20;89.20;;;;;;5113463;28;20122;-78
2023/04/09 03:48:43;;;;;;;32.58;13.98;;;11.00;89.60;;;;;;5113551;28;20134;-78
2023/04/09 03:51:15;;;;;;;25.67;13.15;;;11.00;90.00;;;;;;5114468;28;20047;-78
2023/04/09 03:53:41;;;;;;;25.50;11.60;;;11.00;90.10;;;;;;5113617;28;20163;-78
2023/04/09 03:56:07;;;;;;;30.50;12.88;;;11.00;90.30;;;;;;5114374;28;20029;-78
2023/04/09 03:58:33;;;;;;;27.42;12.77;;;11.00;90.30;;;;;;5114350;28;20105;-78
2023/04/09 04:00:59;;;;;;;27.20;12.10;;;11.00;90.20;;;;;;5114234;28;20040;-78
2023/04/09 04:03:25;;;;;;;28.88;13.13;;;10.90;90.20;;;;;;5114201;28;20028;-78
2023/04/09 04:05:51;;;;;;;28.85;12.77;;;10.90;90.00;;;;;;5113180;28;20095;-78
2023/04/09 04:08:16;;;;;;;26.02;12.32;;;10.90;89.50;;;;;;5114083;28;20058;-78
2023/04/09 04:10:42;;;;;;;32.15;14.32;;;10.80;89.50;;;;;;5114067;28;20028;-78
2023/04/09 04:13:07;;;;;;;28.05;13.07;;;10.70;89.60;;;;;;5114028;28;20028;-78
2023/04/09 04:15:42;;;;;;;29.65;13.65;;;10.60;89.80;;;;;;5096306;28;20031;-78
2023/04/09 04:18:09;;;;;;;31.23;13.70;;;10.50;90.00;;;;;;5114056;28;20099;-78
2023/04/09 04:20:36;;;;;;;27.35;13.30;;;10.40;90.10;;;;;;5113014;28;20054;-78
2023/04/09 04:23:02;;;;;;;30.92;13.48;;;10.30;90.30;;;;;;5112927;28;20087;-78
2023/04/09 04:25:28;;;;;;;32.63;13.98;;;10.20;90.40;;;;;;5112256;28;20059;-78
2023/04/09 04:27:54;;;;;;;28.10;11.73;;;10.20;90.60;;;;;;5113556;28;20040;-78
2023/04/09 04:30:23;;;;;;;30.75;12.98;;;10.20;90.70;;;;;;5112788;28;20020;-78
2023/04/09 04:32:49;;;;;;;26.05;12.45;;;10.20;90.60;;;;;;5113807;28;20016;-78
2023/04/09 04:35:15;;;;;;;28.15;12.82;;;10.20;90.60;;;;;;5113637;28;20027;-78
2023/04/09 04:37:40;;;;;;;27.60;12.30;;;10.30;90.50;;;;;;5112689;28;20051;-78
2023/04/09 04:40:09;;;;;;;30.88;13.18;;;10.30;90.50;;;;;;5113458;28;20055;-78
2023/04/09 04:42:35;;;;;;;27.80;12.70;;;10.30;90.40;;;;;;5113656;28;20050;-78
2023/04/09 04:45:00;;;;;;;30.73;13.20;;;10.30;90.30;;;;;;5113591;28;20099;-78
2023/04/09 04:47:26;;;;;;;29.15;12.68;;;10.30;90.40;;;;;;5113451;28;20036;-78
2023/04/09 04:49:53;;;;;;;27.27;13.25;;;10.30;90.30;;;;;;5112480;28;20035;-78
2023/04/09 04:52:19;;;;;;;27.25;12.25;;;10.30;90.20;;;;;;5112547;28;20027;-78
2023/04/09 04:54:44;;;;;;;30.63;12.82;;;10.30;90.20;;;;;;5112524;28;20029;-78
2023/04/09 04:57:10;;;;;;;25.92;12.80;;;10.30;90.20;;;;;;5112605;28;20043;-78
2023/04/09 04:59:39;;;;;;;31.63;13.60;;;10.20;90.20;;;;;;5113569;28;20028;-78
2023/04/09 05:02:06;;;;;;;34.03;14.45;;;10.20;90.30;;;;;;5113423;28;20054;-78
2023/04/09 05:04:32;;;;;;;29.60;13.43;;;10.20;90.20;;;;;;5113395;28;20039;-78
2023/04/09 05:06:57;;;;;;;30.00;13.40;;;10.20;90.30;;;;;;5113283;28;20110;-78
2023/04/09 05:09:23;;;;;;;34.58;14.43;;;10.20;90.30;;;;;;5112553;28;20032;-78
2023/04/09 05:11:48;;;;;;;32.28;14.02;;;10.10;90.30;;;;;;5112459;28;20025;-78
2023/04/09 05:14:14;;;;;;;33.22;13.10;;;10.00;90.40;;;;;;5112276;28;20033;-78
2023/04/09 05:16:40;;;;;;;28.80;12.95;;;10.00;90.50;;;;;;5112239;28;20025;-78
2023/04/09 05:19:06;;;;;;;27.33;13.35;;;10.10;90.50;;;;;;5113269;28;20033;-78
2023/04/09 05:21:32;;;;;;;32.00;13.30;;;10.10;90.50;;;;;;5112283;28;20055;-78
2023/04/09 05:23:57;;;;;;;27.83;12.63;;;10.10;90.50;;;;;;5112176;28;20036;-78
2023/04/09 05:26:23;;;;;;;29.95;13.40;;;10.10;90.50;;;;;;5112288;28;20025;-78
2023/04/09 05:28:49;;;;;;;31.55;13.23;;;10.10;90.40;;;;;;5113115;28;20033;-78
2023/04/09 05:31:15;;;;;;;32.75;12.73;;;10.10;90.40;;;;;;5113170;28;20032;-78
2023/04/09 05:33:43;;;;;;;31.75;14.07;;;10.00;90.50;;;;;;5113227;28;20045;-79
2023/04/09 05:36:17;;;;;;;29.08;12.93;;;10.10;90.50;;;;;;5095237;28;20092;-79
2023/04/09 05:38:44;;;;;;;28.88;14.07;;;10.00;90.50;;;;;;5116533;28;20028;-79
2023/04/09 05:41:10;;;;;;;29.38;14.25;;;10.00;90.60;;;;;;5116824;28;20051;-79
2023/04/09 05:43:35;;;;;;;30.73;13.13;;;9.90;90.70;;;;;;5116028;28;20035;-79
2023/04/09 05:46:01;;;;;;;31.95;13.55;;;10.00;90.70;;;;;;5116864;28;20044;-79
2023/04/09 05:48:27;;;;;;;32.97;14.02;;;10.00;90.80;;;;;;5115735;28;20158;-78
2023/04/09 05:50:52;;;;;;;31.35;13.43;;;10.00;90.80;;;;;;5116859;28;20092;-79
2023/04/09 05:53:19;;;;;;;38.03;15.25;;;9.90;90.70;;;;;;5115791;28;20077;-79
2023/04/09 05:55:45;;;;;;;32.58;13.88;;;9.90;90.90;;;;;;5116719;28;20079;-79
2023/04/09 05:58:11;;;;;;;28.00;13.55;;;9.80;91.00;;;;;;5098755;28;20058;-79
2023/04/09 06:00:37;;;;;;;32.70;14.45;;;9.80;91.10;;;;;;5116597;28;20024;-79
2023/04/09 06:03:03;;;;;;;31.02;14.68;;;9.90;91.20;;;;;;5116553;28;20024;-79
2023/04/09 06:05:29;;;;;;;32.78;14.38;;;9.90;91.00;;;;;;5116539;28;20043;-79
2023/04/09 06:07:55;;;;;;;29.92;13.88;;;9.80;91.00;;;;;;5098386;28;20033;-79
2023/04/09 06:10:20;;;;;;;34.83;15.27;;;9.80;91.10;;;;;;5115441;28;20017;-79
2023/04/09 06:12:46;;;;;;;29.67;13.65;;;9.80;91.30;;;;;;5116478;28;20096;-79
2023/04/09 06:15:12;;;;;;;33.10;14.73;;;9.80;91.50;;;;;;5115291;28;20017;-79
2023/04/09 06:17:37;;;;;;;35.85;17.15;;;9.70;91.50;;;;;;5098319;28;20400;-79
2023/04/09 06:20:03;;;;;;;29.80;14.25;;;9.70;91.50;;;;;;5116184;28;20020;-79
2023/04/09 06:22:29;;;;;;;34.08;13.68;;;9.70;91.60;;;;;;5116227;28;20028;-79
2023/04/09 06:24:55;;;;;;;33.05;15.32;;;9.80;91.70;;;;;;5116105;28;20024;-79
2023/04/09 06:27:21;;;;;;;34.38;14.52;;;9.80;91.60;;;;;;5098317;28;20053;-78
2023/04/09 06:29:47;;;;;;;35.78;14.73;;;9.70;91.50;;;;;;5115240;28;20020;-80
2023/04/09 06:32:12;;;;;;;30.13;13.20;;;9.70;91.70;;;;;;5114993;28;20031;-79
2023/04/09 06:34:38;;;;;;;34.78;15.00;;;9.80;91.80;;;;;;5116016;28;20032;-80
2023/04/09 06:37:04;;;;;;;32.90;14.90;;;9.80;92.10;;;;;;5115009;28;20031;-79
2023/04/09 06:39:30;;;;;;;35.60;15.10;;;9.80;91.90;;;;;;5116006;28;20052;-79
2023/04/09 06:41:55;;;;;;;32.58;14.32;;;9.90;91.90;;;;;;5114664;28;20070;-79
2023/04/09 06:44:23;;;;;;;33.63;14.13;;;9.80;91.80;;;;;;5114891;28;20080;-79
2023/04/09 06:46:48;;;;;;;33.50;15.48;;;9.90;91.80;;;;;;5115678;28;20020;-79
2023/04/09 06:49:14;;;;;;;29.83;13.88;;;9.90;91.80;;;;;;5113858;28;20093;-79
2023/04/09 06:51:40;;;;;;;32.97;15.02;;;9.90;91.70;;;;;;5114685;28;20024;-79
2023/04/09 06:54:06;;;;;;;35.22;15.52;;;9.90;91.90;;;;;;5115612;28;20029;-79
2023/04/09 06:56:32;;;;;;;36.25;15.63;;;10.00;92.10;;;;;;5115529;28;20028;-79
2023/04/09 06:58:57;;;;;;;30.48;14.65;;;10.00;92.00;;;;;;5114525;28;20503;-79
2023/04/09 07:01:24;;;;;;;34.50;16.50;;;10.00;92.00;;;;;;5114474;28;20028;-78
2023/04/09 07:03:49;;;;;;;31.23;14.23;;;10.10;92.20;;;;;;5115387;28;20089;-78
2023/04/09 07:06:15;;;;;;;31.60;14.18;;;10.10;91.90;;;;;;5115298;28;20092;-78
2023/04/09 07:08:41;;;;;;;32.92;14.85;;;10.20;91.80;;;;;;5115292;28;20032;-81
2023/04/09 07:11:06;;;;;;;39.58;17.30;;;10.20;91.80;;;;;;5080683;28;20024;-81
2023/04/09 07:13:32;;;;;;;29.80;14.48;;;10.20;91.80;;;;;;5115279;28;20028;-80
2023/04/09 07:15:57;;;;;;;32.38;15.18;;;10.20;91.80;;;;;;5114070;28;20073;-79
2023/04/09 07:18:23;;;;;;;31.98;15.55;;;10.30;91.90;;;;;;5113970;28;20024;-79
2023/04/09 07:20:50;;;;;;;36.22;15.43;;;10.30;92.10;;;;;;5114005;28;20036;-79
2023/04/09 07:23:16;;;;;;;33.83;16.15;;;10.40;92.20;;;;;;5114987;28;20034;-79
2023/04/09 07:25:42;;;;;;;34.95;15.98;;;10.50;92.10;;;;;;5113872;28;20048;-79
2023/04/09 07:28:08;;;;;;;32.72;14.80;;;10.50;91.50;;;;;;5097285;28;20047;-79
2023/04/09 07:30:33;;;;;;;35.53;16.83;;;10.40;91.80;;;;;;5113909;28;20016;-79
2023/04/09 07:32:59;;;;;;;31.67;13.40;;;10.40;91.90;;;;;;5113754;28;20035;-80
2023/04/09 07:35:25;;;;;;;29.73;13.88;;;10.40;91.80;;;;;;5113744;28;20054;-79
2023/04/09 07:37:50;;;;;;;28.88;14.15;;;10.40;91.60;;;;;;5114655;28;20024;-79
2023/04/09 07:40:16;;;;;;;29.25;14.00;;;10.40;91.30;;;;;;5113531;28;20075;-80
2023/04/09 07:42:42;;;;;;;34.25;16.05;;;10.40;91.60;;;;;;5080236;28;20056;-79
2023/04/09 07:45:08;;;;;;;32.63;15.95;;;10.40;91.70;;;;;;5114602;28;20028;-79
2023/04/09 07:47:34;;;;;;;30.48;14.77;;;10.50;91.40;;;;;;5114500;28;20039;-79
2023/04/09 07:50:00;;;;;;;34.70;15.65;;;10.50;91.50;;;;;;5113467;28;20024;-79
2023/04/09 07:52:25;;;;;;;31.15;15.68;;;10.50;91.20;;;;;;5113577;28;20021;-79
2023/04/09 07:54:51;;;;;;;30.88;15.82;;;10.60;91.60;;;;;;5096531;28;20381;-79
2023/04/09 07:57:17;;;;;;;32.35;14.98;;;10.80;90.80;;;;;;5096434;28;20039;-79
2023/04/09 07:59:42;;;;;;;25.80;13.93;;;10.70;90.80;;;;;;5113358;28;20053;-79
2023/04/09 08:02:08;;;;;;;30.63;15.65;;;10.80;91.50;;;;;;5113232;28;20036;-79
2023/04/09 08:04:34;;;;;;;29.23;14.05;;;10.90;91.20;;;;;;5096265;28;20051;-79
2023/04/09 08:07:00;;;;;;;28.73;14.43;;;11.00;90.30;;;;;;5114125;28;20099;-79
2023/04/09 08:09:25;;;;;;;28.95;15.40;;;11.10;90.90;;;;;;5113056;28;20036;-79
2023/04/09 08:11:52;;;;;;;32.20;15.35;;;11.20;90.60;;;;;;5096171;28;20032;-80
2023/04/09 08:14:18;;;;;;;32.92;15.63;;;11.40;90.40;;;;;;5079762;28;20034;-80
2023/04/09 08:16:45;;;;;;;25.27;12.48;;;11.40;90.30;;;;;;5114003;28;20475;-80
2023/04/09 08:19:12;;;;;;;30.08;14.57;;;11.50;89.40;;;;;;5113937;28;20031;-79
2023/04/09 08:21:42;;;;;;;26.38;13.75;;;11.50;89.00;;;;;;5113956;28;20024;-79
2023/04/09 08:24:11;;;;;;;26.35;13.73;;;11.60;89.20;;;;;;5113235;28;20020;-79
2023/04/09 08:26:38;;;;;;;27.17;13.55;;;11.70;88.80;;;;;;5113866;28;20031;-79
2023/04/09 08:29:03;;;;;;;27.40;12.57;;;11.80;87.90;;;;;;5112497;28;20095;-80
2023/04/09 08:31:29;;;;;;;21.10;11.07;;;11.90;86.50;;;;;;5112810;28;20038;-79
2023/04/09 08:33:55;;;;;;;23.98;11.25;;;11.90;85.10;;;;;;5112621;28;20419;-80
2023/04/09 08:36:21;;;;;;;25.13;12.15;;;12.00;84.40;;;;;;5113739;28;20035;-79
2023/04/09 08:38:47;;;;;;;25.45;11.07;;;12.00;84.50;;;;;;5112726;28;20028;-79
2023/04/09 08:41:19;;;;;;;19.58;9.85;;;12.00;82.60;;;;;;5113458;28;20074;-79
2023/04/09 08:43:47;;;;;;;21.23;9.90;;;12.20;81.50;;;;;;5113608;28;20058;-79
2023/04/09 08:46:15;;;;;;;19.98;10.00;;;12.20;80.50;;;;;;5113629;28;20038;-79
2023/04/09 08:48:45;;;;;;;22.60;10.98;;;12.50;80.60;;;;;;5112477;28;20016;-79
2023/04/09 08:51:15;;;;;;;21.85;10.65;;;12.60;80.90;;;;;;5113574;28;20028;-79
2023/04/09 08:53:46;;;;;;;21.40;10.40;;;12.60;81.10;;;;;;5113635;28;20050;-79
2023/04/09 08:56:15;;;;;;;23.95;10.95;;;12.70;80.40;;;;;;5112500;28;20020;-79
2023/04/09 08:58:45;;;;;;;23.77;11.40;;;12.80;79.10;;;;;;5113467;28;20074;-79
2023/04/09 09:01:29;;;;;;;21.63;10.30;;;12.80;80.00;;;;;;5113454;28;20084;-79
2023/04/09 09:04:05;;;;;;;18.25;10.38;;;12.90;78.50;;;;;;5113487;28;20062;-78
2023/04/09 09:06:34;;;;;;;21.63;10.95;;;13.00;79.00;;;;;;5112468;28;20033;-78
2023/04/09 09:09:06;;;;;;;20.63;10.68;;;13.00;78.20;;;;;;5113242;28;20028;-78
2023/04/09 09:11:33;;;;;;;19.73;9.43;;;13.10;78.20;;;;;;5113399;28;20024;-78
2023/04/09 09:14:07;;;;;;;22.73;11.13;;;13.10;76.00;;;;;;5116189;28;20032;-78
2023/04/09 09:16:34;;;;;;;18.92;10.77;;;13.20;77.60;;;;;;5117690;28;20020;-77
2023/04/09 09:19:01;;;;;;;21.30;10.68;;;13.40;76.60;;;;;;5117448;28;20503;-78
2023/04/09 09:21:28;;;;;;;24.10;10.07;;;13.50;74.30;;;;;;5116329;28;20020;-77
2023/04/09 09:23:55;;;;;;;23.60;11.10;;;13.40;75.90;;;;;;5116364;28;20050;-79
2023/04/09 09:26:23;;;;;;;20.00;9.73;;;13.60;76.10;;;;;;5117266;28;20024;-77
2023/04/09 09:28:49;;;;;;;21.30;9.77;;;13.70;76.40;;;;;;5117178;28;20044;-77
2023/04/09 09:31:18;;;;;;;22.23;10.52;;;13.70;75.40;;;;;;5117245;28;20054;-77
2023/04/09 09:33:45;;;;;;;18.52;9.25;;;13.80;77.10;;;;;;5117065;28;20024;-77
2023/04/09 09:36:11;;;;;;;16.80;8.98;;;13.90;74.10;;;;;;5117103;28;20024;-77
2023/04/09 09:38:55;;;;;;;18.73;8.43;;;13.80;72.10;;;;;;5117069;28;20074;-77
2023/04/09 09:41:21;;;;;;;19.00;8.93;;;13.90;73.10;;;;;;5116835;28;20081;-76
2023/04/09 09:43:47;;;;;;;14.85;7.97;;;14.00;74.40;;;;;;5116856;28;20024;-77
2023/04/09 09:46:13;;;;;;;16.38;7.72;;;14.20;75.10;;;;;;5116119;28;20054;-77
2023/04/09 09:48:41;;;;;;;17.08;8.93;;;14.30;74.50;;;;;;5116780;28;20035;-78
2023/04/09 09:51:11;;;;;;;14.30;6.45;;;14.40;71.30;;;;;;5116792;28;20039;-78
2023/04/09 09:53:38;;;;;;;12.18;7.25;;;14.30;68.80;;;;;;5116764;28;20020;-77
2023/04/09 09:56:05;;;;;;;14.38;7.25;;;14.20;68.60;;;;;;5116765;28;20023;-78
2023/04/09 09:58:40;;;;;;;15.95;7.78;;;14.30;68.80;;;;;;5116792;28;20508;-78
2023/04/09 10:01:12;;;;;;;14.02;7.90;;;14.30;70.10;;;;;;5116624;28;20024;-77
2023/04/09 10:03:38;;;;;;;16.80;7.95;;;14.50;68.20;;;;;;5116644;28;20028;-77
2023/04/09 10:06:06;;;;;;;15.80;8.38;;;14.60;70.50;;;;;;5116487;28;20031;-77
2023/04/09 10:08:33;;;;;;;16.70;8.63;;;14.70;70.20;;;;;;5115496;28;20058;-77
2023/04/09 10:11:04;;;;;;;15.88;8.45;;;14.70;66.80;;;;;;5115480;28;20020;-76
2023/04/09 10:13:51;;;;;;;17.75;8.77;;;14.60;66.70;;;;;;5116460;28;20030;-78
2023/04/09 10:16:17;;;;;;;19.02;9.70;;;14.80;69.60;;;;;;5116361;28;20020;-78
2023/04/09 10:18:43;;;;;;;16.55;7.82;;;14.90;68.20;;;;;;5115277;28;20035;-78
2023/04/09 10:21:35;;;;;;;14.60;8.57;;;15.00;70.00;;;;;;5116204;28;20028;-78
2023/04/09 10:24:04;;;;;;;15.73;8.48;;;15.10;67.70;;;;;;5105716;28;20050;-77
2023/04/09 10:26:32;;;;;;;14.88;8.27;;;15.00;68.00;;;;;;5098772;28;20035;-77
2023/04/09 10:29:12;;;;;;;16.15;8.45;;;15.00;66.90;;;;;;5116017;28;20030;-76
2023/04/09 10:32:05;;;;;;;14.80;7.72;;;15.00;67.90;;;;;;5115080;28;20024;-78
2023/04/09 10:34:34;;;;;;;;;;;15.10;68.90;;;;;;5115419;28;20040;-80
2023/04/09 10:37:00;;;;;;;16.63;8.27;;;15.20;68.30;;;;;;5115914;28;19943;-77
2023/04/09 10:39:32;;;;;;;16.10;8.50;;;15.40;66.70;;;;;;5098091;28;20042;-78
2023/04/09 10:42:06;;;;;;;;;;;15.50;67.20;;;;;;5116115;28;20062;-78
2023/04/09 10:44:34;;;;;;;16.42;8.70;;;15.40;66.30;;;;;;5115807;28;20334;-79
2023/04/09 10:47:01;;;;;;;17.85;8.27;;;15.40;65.20;;;;;;5115635;28;20038;-79
2023/04/09 10:49:38;;;;;;;15.02;7.80;;;15.50;66.70;;;;;;5114782;28;20044;-77
2023/04/09 10:52:09;;;;;;;16.25;8.13;;;15.40;66.10;;;;;;5115671;28;20484;-77
2023/04/09 10:54:47;;;;;;;12.70;6.93;;;15.40;65.10;;;;;;5115766;28;20020;-79
2023/04/09 10:57:15;;;;;;;15.93;7.95;;;15.50;66.70;;;;;;5115541;28;20020;-77
2023/04/09 10:59:54;;;;;;;13.88;7.57;;;15.60;64.50;;;;;;5114556;28;20041;-78
2023/04/09 11:02:38;;;;;;;13.82;7.53;;;15.80;65.20;;;;;;5115492;28;20019;-77
2023/04/09 11:05:23;;;;;;;16.20;7.90;;;15.80;64.40;;;;;;5115328;28;20049;-77
2023/04/09 11:07:57;;;;;;;14.63;8.50;;;15.80;62.90;;;;;;5115269;28;20048;-77
2023/04/09 11:10:23;;;;;;;11.18;6.38;;;15.90;65.40;;;;;;5115335;28;20038;-77
2023/04/09 11:12:48;;;;;;;12.88;7.22;;;15.90;59.70;;;;;;5115161;28;20024;-78
2023/04/09 11:15:18;;;;;;;13.23;6.88;;;15.80;58.70;;;;;;5115141;28;20017;-78
2023/04/09 11:17:46;;;;;;;13.73;7.35;;;15.80;61.60;;;;;;5115263;28;20070;-77
2023/04/09 11:20:19;;;;;;;10.32;6.10;;;16.00;62.50;;;;;;5115117;28;20048;-77
2023/04/09 11:22:45;;;;;;;11.18;6.13;;;16.10;57.60;;;;;;5114023;28;20048;-77
2023/04/09 11:25:20;;;;;;;11.18;6.20;;;16.00;60.70;;;;;;5114987;28;20031;-78
2023/04/09 11:27:46;;;;;;;11.30;6.88;;;16.00;58.10;;;;;;5115003;28;20028;-78
2023/04/09 11:30:12;;;;;;;12.48;7.30;;;16.00;58.30;;;;;;5114908;28;20023;-78
2023/04/09 11:32:37;;;;;;;14.25;7.35;;;16.10;60.70;;;;;;5113774;28;20020;-78
2023/04/09 11:35:03;;;;;;;13.23;7.80;;;16.30;61.40;;;;;;5113382;28;20044;-77
2023/04/09 11:37:29;;;;;;;14.25;7.43;;;16.40;60.50;;;;;;5113775;28;20105;-77
2023/04/09 11:39:57;;;;;;;14.70;7.30;;;16.40;61.20;;;;;;5114457;28;20024;-77
2023/04/09 11:42:24;;;;;;;11.52;6.50;;;16.30;58.60;;;;;;5113883;28;20035;-79
2023/04/09 11:44:51;;;;;;;13.13;6.32;;;16.20;62.20;;;;;;5114624;28;20020;-78
2023/04/09 11:47:17;;;;;;;12.40;6.88;;;16.20;56.40;;;;;;5113478;28;20022;-78
2023/04/09 11:49:46;;;;;;;12.95;7.55;;;16.10;57.20;;;;;;5114450;28;20035;-78
2023/04/09 11:52:12;;;;;;;14.35;7.70;;;16.20;58.10;;;;;;5113629;28;20044;-78
2023/04/09 11:54:38;;;;;;;13.15;7.50;;;16.20;57.10;;;;;;5113422;28;20012;-79
2023/04/09 11:57:04;;;;;;;12.55;8.00;;;16.20;55.80;;;;;;5096342;28;20115;-79
2023/04/09 11:59:30;;;;;;;13.73;7.22;;;16.00;58.10;;;;;;5114336;28;20027;-78
2023/04/09 12:02:00;;;;;;;14.85;7.85;;;16.10;59.10;;;;;;5114386;28;20092;-80
2023/04/09 12:04:25;;;;;;;13.88;7.80;;;16.40;60.20;;;;;;5114233;28;20020;-80
2023/04/09 12:06:57;;;;;;;13.32;7.47;;;16.70;61.30;;;;;;5113282;28;20060;-80
2023/04/09 12:09:23;;;;;;;14.25;7.57;;;16.90;61.50;;;;;;5114113;28;20020;-79
2023/04/09 12:11:49;;;;;;;13.50;7.20;;;16.70;55.00;;;;;;5114202;28;20079;-79
2023/04/09 12:14:16;;;;;;;12.52;6.63;;;16.50;56.90;;;;;;5114054;28;20031;-78
2023/04/09 12:16:43;;;;;;;12.77;7.30;;;16.40;56.60;;;;;;5113987;28;20024;-79
2023/04/09 12:19:10;;;;;;;13.45;7.43;;;16.30;55.20;;;;;;5113916;28;20023;-77
2023/04/09 12:21:51;;;;;;;11.77;7.30;;;16.30;56.30;;;;;;5112927;28;20091;-77
2023/04/09 12:24:19;;;;;;;16.17;8.23;;;16.40;57.30;;;;;;5112967;28;20037;-78
2023/04/09 12:26:45;;;;;;;14.60;7.82;;;16.50;60.20;;;;;;5112861;28;20031;-77
2023/04/09 12:29:17;;;;;;;13.90;8.45;;;16.70;61.80;;;;;;5113810;28;20032;-78
2023/04/09 12:31:43;;;;;;;15.38;7.82;;;16.80;58.50;;;;;;5113831;28;20024;-77
2023/04/09 12:34:09;;;;;;;14.27;8.07;;;16.70;57.50;;;;;;5112629;28;20016;-77